createdAt,value
2019-04-11T00:00:17.460Z,1213.53
2019-04-11T00:05:21.319Z,1776.33
2019-04-11T00:10:26.032Z,1414.40
2019-04-11T00:15:30.712Z,997.47
2019-04-11T00:20:34.537Z,1653.53
2019-04-11T00:25:38.239Z,1166.57
2019-04-11T00:30:42.160Z,1778.20
2019-04-11T00:35:46.106Z,1372.90
2019-04-11T00:40:49.854Z,1553.70
2019-04-11T00:45:54.070Z,1141.73
2019-04-11T00:50:57.977Z,1449.23
2019-04-11T00:56:02.258Z,1313.70
2019-04-11T01:01:07.188Z,1184.13
2019-04-11T01:06:12.195Z,1347.73
2019-04-11T01:11:16.151Z,1314.83
2019-04-11T01:16:28.358Z,1288.13
2019-04-11T01:21:32.793Z,1372.73
2019-04-11T01:26:41.330Z,976.43
2019-04-11T01:31:46.569Z,1260.47
2019-04-11T01:36:51.213Z,1308.07
2019-04-11T01:41:55.290Z,1158.70
2019-04-11T01:46:59.306Z,759.90
2019-04-11T01:52:04.737Z,1057.97
2019-04-11T01:57:09.730Z,1236.57
2019-04-11T02:02:36.806Z,1414.07
2019-04-11T02:07:40.684Z,913.57
2019-04-11T02:12:45.572Z,524.13
2019-04-11T02:17:59.425Z,649.57
2019-04-11T02:23:23.968Z,565.47
2019-04-11T02:28:28.697Z,523.37
2019-04-11T02:33:32.932Z,527.37
2019-04-11T02:38:48.759Z,545.17
2019-04-11T02:43:51.606Z,644.00
2019-04-11T02:48:56.777Z,417.10
2019-04-11T02:54:02.242Z,445.70
2019-04-11T02:59:07.241Z,389.07
2019-04-11T03:04:12.745Z,498.43
2019-04-11T03:09:17.729Z,394.13
2019-04-11T03:14:23.302Z,315.63
2019-04-11T03:19:42.581Z,328.57
2019-04-11T03:24:35.855Z,400.13
2019-04-11T03:29:40.638Z,248.63
2019-04-11T03:35:45.760Z,440.00
2019-04-11T03:40:13.173Z,578.63
2019-04-11T03:45:22.669Z,1011.53
2019-04-11T03:50:08.358Z,690.30
2019-04-11T03:55:08.731Z,420.87
2019-04-11T04:00:14.863Z,505.53
2019-04-11T04:05:24.445Z,202.83
2019-04-11T04:10:31.812Z,161.40
2019-04-11T04:16:04.193Z,239.13
2019-04-11T04:21:22.688Z,290.77
2019-04-11T04:26:26.969Z,187.37
2019-04-11T04:31:32.779Z,180.03
2019-04-11T04:36:37.862Z,277.93
2019-04-11T04:41:49.482Z,324.77
2019-04-11T04:47:03.181Z,451.10
2019-04-11T04:51:55.671Z,160.87
2019-04-11T04:57:00.954Z,105.37
2019-04-11T05:02:06.609Z,107.67
2019-04-11T05:07:11.676Z,112.83
2019-04-11T05:12:16.239Z,105.03
2019-04-11T05:17:20.159Z,103.90
2019-04-11T05:22:24.656Z,124.67
2019-04-11T05:27:29.323Z,105.23
2019-04-11T05:32:33.460Z,297.47
2019-04-11T05:37:37.865Z,312.63
2019-04-11T05:42:41.775Z,282.80
2019-04-11T05:47:49.309Z,214.37
2019-04-11T05:52:52.474Z,575.37
2019-04-11T05:57:56.969Z,351.13
2019-04-11T06:03:03.782Z,642.20
2019-04-11T06:08:09.940Z,1083.57
2019-04-11T06:13:20.594Z,673.43
2019-04-11T06:18:45.053Z,760.20
2019-04-11T06:24:14.094Z,467.87
2019-04-11T06:29:26.422Z,579.03
2019-04-11T06:34:30.434Z,762.17
2019-04-11T06:39:39.572Z,645.77
2019-04-11T06:45:02.164Z,1150.37
2019-04-11T06:50:17.887Z,491.73
2019-04-11T06:55:39.572Z,437.03
2019-04-11T07:00:47.512Z,550.50
2019-04-11T07:05:53.129Z,417.03
2019-04-11T07:11:01.616Z,193.13
2019-04-11T07:16:05.360Z,161.57
2019-04-11T07:21:10.943Z,100.93
2019-04-11T07:26:46.244Z,178.40
2019-04-11T07:32:09.762Z,664.67
2019-04-11T07:37:26.487Z,607.60
2019-04-11T07:42:43.470Z,533.40
2019-04-11T07:47:52.759Z,344.43
2019-04-11T07:53:01.315Z,694.60
2019-04-11T07:58:22.296Z,755.50
2019-04-11T08:03:44.660Z,1040.00
2019-04-11T08:09:07.563Z,727.90
2019-04-11T08:14:24.563Z,1034.90
2019-04-11T08:19:47.587Z,1999.90
2019-04-11T08:24:58.725Z,1931.13
2019-04-11T08:30:02.733Z,406.93
2019-04-11T08:35:16.018Z,1215.83
2019-04-11T08:40:19.917Z,385.57
2019-04-11T08:45:25.748Z,218.00
2019-04-11T08:50:32.718Z,1999.90
2019-04-11T08:55:48.882Z,817.90
2019-04-11T09:00:59.306Z,715.50
2019-04-11T09:06:08.317Z,95.50
2019-04-11T09:11:24.765Z,463.10
2019-04-11T09:16:52.639Z,137.17
2019-04-11T09:22:15.122Z,145.87
2019-04-11T09:27:47.385Z,570.50
2019-04-11T09:33:13.278Z,1189.33
2019-04-11T09:38:18.189Z,1999.90
2019-04-11T09:43:26.166Z,1779.17
2019-04-11T09:48:46.320Z,788.33
2019-04-11T09:53:55.028Z,337.37
2019-04-11T09:59:02.323Z,1550.90
2019-04-11T10:04:06.658Z,913.07
2019-04-11T10:09:11.471Z,702.43
2019-04-11T10:14:17.632Z,156.53
2019-04-11T10:19:31.832Z,1590.30
2019-04-11T10:25:10.711Z,1463.67
2019-04-11T10:30:51.935Z,233.20
2019-04-11T10:36:18.974Z,143.23
2019-04-11T10:41:37.850Z,1597.27
2019-04-11T10:46:53.540Z,167.20
2019-04-11T10:52:07.675Z,128.90
2019-04-11T10:57:24.912Z,153.57
2019-04-11T11:03:04.313Z,95.87
2019-04-11T11:08:15.360Z,97.07
2019-04-11T11:13:44.331Z,134.77
2019-04-11T11:19:33.730Z,134.20
2019-04-11T11:24:40.623Z,349.70
2019-04-11T11:30:06.691Z,170.90
2019-04-11T11:35:45.796Z,158.60
2019-04-11T11:41:18.457Z,162.30
2019-04-11T11:46:44.657Z,110.73
2019-04-11T11:52:11.277Z,97.43
2019-04-11T11:57:20.728Z,250.00
2019-04-11T12:02:32.726Z,744.30
2019-04-11T12:07:41.052Z,115.90
2019-04-11T12:13:10.837Z,157.57
2019-04-11T12:18:30.290Z,372.50
2019-04-11T12:24:01.205Z,108.73
2019-04-11T12:29:12.339Z,272.33
2019-04-11T12:34:32.384Z,901.00
2019-04-11T12:39:55.679Z,521.77
2019-04-11T12:45:37.156Z,307.73
2019-04-11T12:50:58.760Z,155.43
2019-04-11T12:56:20.525Z,235.07
2019-04-11T13:01:43.007Z,187.83
2019-04-11T13:07:14.955Z,274.13
2019-04-11T13:12:36.543Z,784.37
2019-04-11T13:17:43.215Z,112.67
2019-04-11T13:22:47.813Z,222.53
2019-04-11T13:27:54.870Z,263.60
2019-04-11T13:33:00.848Z,282.73
2019-04-11T13:38:17.298Z,216.30
2019-04-11T13:43:37.283Z,255.63
2019-04-11T13:48:58.378Z,190.47
2019-04-11T13:54:20.540Z,371.73
2019-04-11T13:59:42.479Z,254.17
2019-04-11T14:04:47.365Z,790.83
2019-04-11T14:09:52.606Z,1317.53
2019-04-11T14:15:06.130Z,206.60
2019-04-11T14:20:29.090Z,753.20
2019-04-11T14:25:52.069Z,1475.23
2019-04-11T14:31:09.944Z,1748.20
2019-04-11T14:36:33.686Z,433.80
2019-04-11T14:41:46.481Z,453.87
2019-04-11T14:47:06.628Z,1999.90
2019-04-11T14:52:26.966Z,1999.90
2019-04-11T14:57:54.840Z,1749.80
2019-04-11T15:03:09.531Z,1482.50
2019-04-11T15:08:17.668Z,1999.90
2019-04-11T15:13:24.219Z,1989.47
2019-04-11T15:18:28.143Z,1999.90
2019-04-11T15:23:37.545Z,1889.53
2019-04-11T15:29:02.383Z,950.47
2019-04-11T15:34:24.011Z,1365.57
2019-04-11T15:39:48.008Z,883.67
2019-04-11T15:45:13.543Z,876.10
2019-04-11T15:50:35.695Z,947.23
2019-04-11T15:55:48.677Z,398.03
2019-04-11T16:01:07.794Z,458.90
2019-04-11T16:06:38.989Z,793.57
2019-04-11T16:12:07.559Z,631.90
2019-04-11T16:17:33.493Z,165.10
2019-04-11T16:23:05.576Z,268.53
2019-04-11T16:28:27.136Z,109.30
2019-04-11T16:33:46.158Z,424.83
2019-04-11T16:39:07.268Z,1096.83
2019-04-11T16:44:15.354Z,1080.27
2019-04-11T16:49:19.148Z,1535.17
2019-04-11T16:54:23.279Z,1680.43
2019-04-11T16:59:27.510Z,1468.83
2019-04-11T17:04:31.324Z,992.63
2019-04-11T17:09:39.718Z,1577.80
2019-04-11T17:14:43.821Z,1146.10
2019-04-11T17:19:48.614Z,517.80
2019-04-11T17:24:53.467Z,390.40
2019-04-11T17:29:57.448Z,910.37
2019-04-11T17:35:02.026Z,377.47
2019-04-11T17:40:07.618Z,210.33
2019-04-11T17:45:11.588Z,283.17
2019-04-11T17:50:15.428Z,459.63
2019-04-11T17:55:19.363Z,220.40
2019-04-11T18:00:29.508Z,289.90
2019-04-11T18:05:32.232Z,328.43
2019-04-11T18:10:36.111Z,432.40
2019-04-11T18:15:40.189Z,1058.70
2019-04-11T18:20:44.106Z,1383.33
2019-04-11T18:25:48.859Z,857.20
2019-04-11T18:30:54.019Z,779.93
2019-04-11T18:36:01.988Z,464.83
2019-04-11T18:41:05.235Z,977.60
2019-04-11T18:46:09.449Z,1115.17
2019-04-11T18:51:13.260Z,1042.53
2019-04-11T18:56:17.007Z,1102.27
2019-04-11T19:01:26.883Z,1728.17
2019-04-11T19:06:30.756Z,1828.80
2019-04-11T19:11:34.509Z,1468.20
2019-04-11T19:16:38.365Z,1045.80
2019-04-11T19:21:42.163Z,1718.43
2019-04-11T19:26:47.018Z,1587.30
2019-04-11T19:31:50.842Z,1508.43
2019-04-11T19:36:54.779Z,496.60
2019-04-11T19:41:59.056Z,661.30
2019-04-11T19:47:08.559Z,1070.20
2019-04-11T19:52:12.382Z,1046.53
2019-04-11T19:57:16.250Z,1326.57
2019-04-11T20:02:23.134Z,859.60
2019-04-11T20:07:30.110Z,591.00
2019-04-11T20:12:34.128Z,794.50
2019-04-11T20:17:44.142Z,965.67
2019-04-11T20:22:43.831Z,827.03
2019-04-11T20:27:48.183Z,1152.20
2019-04-11T20:32:53.183Z,1326.70
2019-04-11T20:37:57.025Z,658.57
2019-04-11T20:43:00.768Z,1014.63
2019-04-11T20:48:04.517Z,748.20
2019-04-11T20:53:13.084Z,1117.23
2019-04-11T20:58:14.022Z,1221.03
2019-04-11T21:03:17.806Z,1310.57
2019-04-11T21:08:21.646Z,1577.50
2019-04-11T21:13:25.643Z,1288.53
2019-04-11T21:18:29.440Z,1660.37
2019-04-11T21:23:33.218Z,1377.63
2019-04-11T21:28:37.282Z,1907.50
2019-04-11T21:33:41.024Z,1964.33
2019-04-11T21:38:44.833Z,1626.63
2019-04-11T21:43:48.807Z,1749.30
2019-04-11T21:48:52.567Z,1950.70
2019-04-11T21:53:56.291Z,1874.63
2019-04-11T21:59:00.011Z,1980.27
2019-04-11T22:04:03.910Z,1599.60
2019-04-11T22:09:09.177Z,1514.33
2019-04-11T22:14:12.898Z,1854.97
2019-04-11T22:19:16.634Z,1460.90
2019-04-11T22:24:20.551Z,1437.87
2019-04-11T22:29:25.061Z,1711.70
2019-04-11T22:34:56.755Z,1690.17
2019-04-11T22:40:02.109Z,1342.97
2019-04-11T22:45:08.509Z,1592.17
2019-04-11T22:50:12.439Z,1760.43
2019-04-11T22:55:16.163Z,1748.87
2019-04-11T23:00:20.012Z,1104.07
2019-04-11T23:05:23.735Z,1835.90
2019-04-11T23:10:28.557Z,1743.07
2019-04-11T23:15:32.454Z,1586.20
2019-04-11T23:20:36.187Z,1743.70
2019-04-11T23:25:39.896Z,1151.87
2019-04-11T23:30:49.494Z,1600.07
2019-04-11T23:35:51.174Z,1241.37
2019-04-11T23:40:55.474Z,1646.47
2019-04-11T23:45:59.288Z,1686.17
2019-04-11T23:51:03.266Z,1754.07
2019-04-11T23:56:07.249Z,1971.23
